< < Back
Terminal Aerodrome Forecast


Current Version              Previous Versions:   1  2  3  4  5  6  7  8  9  

Terminal Aerodrome Forecast

857
FTUS44 KBMX 312320
TAFBHM
TAF
KBHM 312320Z 0100/0124 00000KT P6SM SCT250
     FM010800 00000KT 6SM BR SKC
     FM011500 01005KT P6SM SCT250=

Latest METAR

168
SAUS70 KWBC 012000 RRP
MTRBHM
METAR KBHM 011953Z 01004KT 10SM SCT045 BKN055 OVC075 31/19 A3011 RMK AO2
SLP186 T03060194


USA.gov is the U.S. government's official web portal to all federal, state and local government web resources and services.